Time;durP1;ratioP1;P1;durP2;ratioP2;P2;SDS_P1;SDS_P2;PMS_P1;PMS_P2;Temp;Humidity;BMP_temperature;BMP_pressure;BME280_temperature;BME280_humidity;BME280_pressure;Samples;Min_cycle;Max_cycle;Signal;HPM_P1;HPM_P2
2021/09/19 00:01:38;;;;;;;8.45;4.85;;;14.10;99.90;;;;;;5089412;28;20038;-60
2021/09/19 00:04:04;;;;;;;7.60;4.72;;;14.10;99.90;;;;;;5075876;28;20051;-60
2021/09/19 00:06:29;;;;;;;9.80;5.28;;;14.00;99.90;;;;;;5083211;28;20682;-61
2021/09/19 00:08:55;;;;;;;7.18;4.28;;;14.10;99.90;;;;;;5075150;28;20024;-59
2021/09/19 00:11:21;;;;;;;6.10;5.30;;;14.10;99.90;;;;;;5072769;28;20464;-61
2021/09/19 00:13:47;;;;;;;8.88;5.53;;;14.10;99.90;;;;;;5077499;28;20103;-58
2021/09/19 00:16:13;;;;;;;8.23;6.13;;;14.20;99.90;;;;;;5070415;28;20095;-59
2021/09/19 00:18:38;;;;;;;11.60;6.40;;;14.20;99.90;;;;;;5077503;28;20494;-62
2021/09/19 00:21:04;;;;;;;8.52;6.40;;;14.20;99.90;;;;;;5071218;28;20471;-60
2021/09/19 00:23:30;;;;;;;9.98;6.95;;;14.20;99.90;;;;;;5054832;28;20025;-60
2021/09/19 00:25:55;;;;;;;8.80;6.57;;;14.20;99.90;;;;;;5071451;28;20028;-59
2021/09/19 00:28:21;;;;;;;10.15;6.05;;;14.20;99.90;;;;;;5069832;28;20102;-60
2021/09/19 00:30:46;;;;;;;9.10;6.07;;;14.20;99.90;;;;;;5070943;28;20028;-60
2021/09/19 00:33:12;;;;;;;12.98;6.40;;;14.10;99.90;;;;;;5072524;28;20450;-60
2021/09/19 00:35:37;;;;;;;8.48;6.25;;;14.10;99.90;;;;;;5076738;28;20464;-61
2021/09/19 00:38:03;;;;;;;10.02;6.10;;;14.20;99.90;;;;;;5077096;28;20036;-60
2021/09/19 00:40:29;;;;;;;8.13;5.85;;;14.10;99.90;;;;;;5075127;28;20126;-59
2021/09/19 00:42:54;;;;;;;9.43;5.60;;;14.20;99.90;;;;;;5070036;28;20348;-61
2021/09/19 00:45:24;;;;;;;9.23;5.65;;;14.20;99.90;;;;;;5075734;28;20035;-61
2021/09/19 00:47:51;;;;;;;9.60;6.82;;;14.20;99.90;;;;;;5073165;28;20024;-61
2021/09/19 00:50:20;;;;;;;9.13;7.18;;;14.20;99.90;;;;;;5069498;28;20495;-60
2021/09/19 00:52:47;;;;;;;10.18;5.85;;;14.20;99.90;;;;;;5070087;28;20021;-61
2021/09/19 00:55:15;;;;;;;9.52;6.95;;;14.10;99.90;;;;;;5084030;28;20027;-61
2021/09/19 00:57:55;;;;;;;9.35;5.72;;;14.10;99.90;;;;;;5076205;28;20072;-61
2021/09/19 01:00:26;;;;;;;10.88;5.88;;;14.10;99.90;;;;;;5078486;28;20036;-61
2021/09/19 01:02:53;;;;;;;8.55;6.13;;;14.20;99.90;;;;;;5075652;28;20033;-59
2021/09/19 01:05:19;;;;;;;9.20;6.35;;;14.10;99.90;;;;;;5081062;28;20031;-60
2021/09/19 01:07:46;;;;;;;8.23;6.32;;;14.20;99.90;;;;;;5078181;28;20036;-61
2021/09/19 01:10:13;;;;;;;10.20;6.47;;;14.10;99.90;;;;;;5082118;28;20017;-61
2021/09/19 01:12:39;;;;;;;11.30;6.38;;;14.10;99.90;;;;;;5075549;28;20051;-59
2021/09/19 01:15:06;;;;;;;13.65;6.97;;;14.00;99.90;;;;;;5082075;28;20020;-59
2021/09/19 01:17:32;;;;;;;8.75;6.05;;;14.10;99.90;;;;;;5082189;28;20123;-61
2021/09/19 01:19:58;;;;;;;7.90;6.07;;;14.10;99.90;;;;;;5078882;28;20070;-61
2021/09/19 01:22:34;;;;;;;7.85;5.75;;;14.00;99.90;;;;;;5081144;28;20487;-60
2021/09/19 01:25:01;;;;;;;9.85;6.60;;;14.10;99.90;;;;;;5076802;28;20399;-60
2021/09/19 01:27:26;;;;;;;9.45;6.07;;;14.10;99.90;;;;;;5085258;28;20085;-61
2021/09/19 01:29:52;;;;;;;8.57;6.63;;;14.10;99.90;;;;;;5073028;28;20047;-63
2021/09/19 01:32:21;;;;;;;8.70;6.28;;;14.10;99.90;;;;;;5090524;28;20117;-59
2021/09/19 01:34:50;;;;;;;10.45;6.60;;;14.10;99.90;;;;;;5082110;28;20025;-61
2021/09/19 01:37:17;;;;;;;9.68;6.88;;;14.10;99.90;;;;;;5080728;28;20024;-61
2021/09/19 01:39:43;;;;;;;6.97;5.22;;;14.00;99.90;;;;;;5077049;28;20089;-60
2021/09/19 01:42:10;;;;;;;8.45;5.97;;;14.00;99.90;;;;;;5084881;28;20028;-60
2021/09/19 01:44:36;;;;;;;8.82;4.57;;;13.90;99.90;;;;;;5084077;28;20371;-61
2021/09/19 01:47:02;;;;;;;6.65;4.40;;;13.90;99.90;;;;;;5074317;28;20028;-63
2021/09/19 01:49:28;;;;;;;6.88;4.53;;;14.00;99.90;;;;;;5077297;28;20074;-62
2021/09/19 01:51:53;;;;;;;12.15;4.35;;;13.90;99.90;;;;;;5078469;22;20049;-57
2021/09/19 01:54:19;;;;;;;7.25;3.97;;;14.00;99.90;;;;;;5052366;28;20032;-61
2021/09/19 01:56:44;;;;;;;6.95;3.92;;;14.00;99.90;;;;;;5059425;28;20039;-59
2021/09/19 01:59:10;;;;;;;8.88;3.33;;;14.00;99.90;;;;;;5057919;28;20457;-61
2021/09/19 02:01:35;;;;;;;3.78;3.13;;;14.10;99.90;;;;;;5045602;28;20433;-59
2021/09/19 02:04:01;;;;;;;5.88;3.63;;;14.10;99.90;;;;;;5045584;28;20413;-61
2021/09/19 02:06:27;;;;;;;7.50;3.83;;;14.10;99.90;;;;;;5040421;28;20029;-61
2021/09/19 02:08:52;;;;;;;4.57;3.15;;;14.10;99.90;;;;;;5041375;28;20112;-61
2021/09/19 02:11:19;;;;;;;3.17;2.88;;;14.10;99.90;;;;;;5037963;28;20044;-58
2021/09/19 02:13:46;;;;;;;3.75;3.22;;;14.00;99.90;;;;;;5042379;28;20036;-58
2021/09/19 02:16:14;;;;;;;3.92;3.03;;;13.90;99.90;;;;;;5041434;28;20056;-57
2021/09/19 02:18:39;;;;;;;6.63;2.85;;;13.90;99.90;;;;;;5045629;28;20029;-59
2021/09/19 02:21:08;;;;;;;2.97;2.50;;;13.90;99.90;;;;;;5038964;28;20034;-57
2021/09/19 02:23:33;;;;;;;3.10;2.50;;;13.80;99.90;;;;;;5040230;28;20017;-58
2021/09/19 02:25:59;;;;;;;4.05;2.50;;;13.90;99.90;;;;;;5051413;28;20514;-57
2021/09/19 02:28:25;;;;;;;3.40;2.95;;;13.90;99.90;;;;;;5025023;28;20115;-61
2021/09/19 02:30:51;;;;;;;6.35;3.70;;;13.80;99.90;;;;;;5039743;28;20029;-58
2021/09/19 02:33:18;;;;;;;3.95;3.55;;;13.80;99.90;;;;;;5041494;28;20028;-61
2021/09/19 02:35:43;;;;;;;4.25;2.92;;;13.80;99.90;;;;;;5039040;28;20025;-59
2021/09/19 02:38:09;;;;;;;3.13;2.17;;;13.80;99.90;;;;;;5038042;28;20166;-58
2021/09/19 02:40:35;;;;;;;8.10;2.65;;;13.80;99.90;;;;;;5046774;28;20032;-59
2021/09/19 02:43:01;;;;;;;5.40;2.78;;;13.80;99.90;;;;;;5043702;28;20029;-59
2021/09/19 02:45:27;;;;;;;8.23;2.72;;;13.80;99.90;;;;;;5042656;28;20096;-56
2021/09/19 02:47:52;;;;;;;5.85;2.80;;;13.70;99.90;;;;;;5038971;28;20484;-61
2021/09/19 02:50:21;;;;;;;4.07;2.10;;;13.60;99.90;;;;;;5041418;28;20029;-56
2021/09/19 02:52:47;;;;;;;4.20;2.40;;;13.60;99.90;;;;;;5039441;28;20121;-55
2021/09/19 02:55:14;;;;;;;6.28;2.78;;;13.50;99.90;;;;;;5049594;28;20037;-58
2021/09/19 02:57:40;;;;;;;2.53;2.33;;;13.60;99.90;;;;;;5032402;28;20021;-57
2021/09/19 03:00:08;;;;;;;4.03;1.85;;;13.60;99.90;;;;;;5037460;28;20109;-55
2021/09/19 03:02:34;;;;;;;5.43;2.50;;;13.60;99.90;;;;;;5040907;28;20026;-55
2021/09/19 03:04:59;;;;;;;5.93;2.10;;;13.50;99.90;;;;;;5039011;28;20048;-56
2021/09/19 03:07:25;;;;;;;3.67;2.17;;;13.50;99.90;;;;;;5038619;28;20033;-57
2021/09/19 03:09:50;;;;;;;3.03;2.08;;;13.50;99.90;;;;;;5042269;28;20033;-54
2021/09/19 03:12:16;;;;;;;3.45;2.05;;;13.50;99.90;;;;;;5037915;28;20029;-57
2021/09/19 03:14:42;;;;;;;3.28;1.77;;;13.50;99.90;;;;;;5037416;28;20032;-58
2021/09/19 03:17:07;;;;;;;2.55;2.00;;;13.50;99.90;;;;;;5040852;28;20064;-57
2021/09/19 03:19:33;;;;;;;3.22;2.08;;;13.40;99.90;;;;;;5042055;28;20045;-56
2021/09/19 03:21:58;;;;;;;3.00;2.30;;;13.40;99.90;;;;;;5039037;28;20040;-55
2021/09/19 03:24:24;;;;;;;2.42;2.20;;;13.40;99.90;;;;;;5036514;28;20116;-56
2021/09/19 03:26:49;;;;;;;3.72;2.20;;;13.30;99.90;;;;;;5030798;28;20029;-56
2021/09/19 03:29:15;;;;;;;2.17;1.98;;;13.30;99.90;;;;;;5040291;28;20025;-57
2021/09/19 03:31:40;;;;;;;3.63;1.75;;;13.30;99.90;;;;;;5041258;28;20025;-59
2021/09/19 03:34:06;;;;;;;4.45;2.50;;;13.30;99.90;;;;;;5037747;28;20026;-57
2021/09/19 03:36:31;;;;;;;7.00;2.38;;;13.20;99.90;;;;;;5035981;28;20029;-58
2021/09/19 03:38:57;;;;;;;3.28;2.10;;;13.20;99.90;;;;;;5039684;28;20056;-60
2021/09/19 03:41:22;;;;;;;3.55;2.38;;;13.20;99.90;;;;;;5036769;28;20029;-60
2021/09/19 03:43:48;;;;;;;3.15;1.70;;;13.20;99.90;;;;;;5037914;28;20040;-57
2021/09/19 03:46:13;;;;;;;3.58;2.55;;;13.20;99.90;;;;;;5039371;28;20501;-59
2021/09/19 03:48:39;;;;;;;3.08;2.10;;;13.10;99.90;;;;;;5034598;28;20037;-58
2021/09/19 03:51:05;;;;;;;2.58;2.38;;;13.00;99.90;;;;;;5040780;28;20044;-60
2021/09/19 03:53:30;;;;;;;11.13;2.53;;;12.90;99.90;;;;;;5035345;28;20029;-59
2021/09/19 03:55:56;;;;;;;2.83;2.08;;;12.90;99.90;;;;;;5037909;28;20021;-59
2021/09/19 03:58:22;;;;;;;2.60;2.30;;;12.90;99.90;;;;;;5044628;28;20017;-59
2021/09/19 04:00:48;;;;;;;4.40;2.40;;;12.80;99.90;;;;;;5027178;28;20503;-61
2021/09/19 04:03:13;;;;;;;5.93;2.35;;;12.80;99.90;;;;;;5036084;28;20033;-61
2021/09/19 04:05:39;;;;;;;4.43;2.33;;;12.80;99.90;;;;;;5037142;28;20051;-56
2021/09/19 04:08:05;;;;;;;5.68;1.95;;;12.80;99.90;;;;;;5018334;28;20079;-58
2021/09/19 04:10:31;;;;;;;5.15;2.45;;;12.80;99.90;;;;;;5032190;28;20523;-59
2021/09/19 04:12:57;;;;;;;2.45;2.08;;;12.70;99.90;;;;;;5035577;28;20025;-60
2021/09/19 04:15:22;;;;;;;3.08;2.20;;;12.70;99.90;;;;;;5035579;28;20113;-60
2021/09/19 04:17:48;;;;;;;2.53;2.10;;;12.70;99.90;;;;;;5030136;28;20467;-61
2021/09/19 04:20:14;;;;;;;2.22;2.00;;;12.70;99.90;;;;;;5039261;28;20409;-61
2021/09/19 04:22:40;;;;;;;2.47;2.10;;;12.60;99.90;;;;;;5039682;28;20136;-59
2021/09/19 04:25:07;;;;;;;3.60;2.50;;;12.60;99.90;;;;;;5043167;28;20065;-57
2021/09/19 04:27:33;;;;;;;2.90;2.20;;;12.60;99.90;;;;;;5036875;28;20022;-62
2021/09/19 04:29:58;;;;;;;6.85;2.47;;;12.60;99.90;;;;;;5037973;28;20109;-57
2021/09/19 04:32:24;;;;;;;3.30;2.30;;;12.60;99.90;;;;;;5039308;28;20025;-57
2021/09/19 04:34:50;;;;;;;2.38;2.10;;;12.60;99.90;;;;;;5035345;28;20025;-57
2021/09/19 04:37:16;;;;;;;5.95;3.55;;;12.60;99.90;;;;;;5030308;28;20112;-56
2021/09/19 04:39:43;;;;;;;3.30;2.50;;;12.60;99.90;;;;;;5032292;28;20035;-58
2021/09/19 04:42:11;;;;;;;2.97;2.25;;;12.60;99.90;;;;;;5040163;28;20044;-58
2021/09/19 04:44:37;;;;;;;2.53;2.05;;;12.70;99.90;;;;;;5033710;28;20513;-55
2021/09/19 04:47:02;;;;;;;1.98;1.85;;;12.70;99.90;;;;;;5029670;28;20060;-54
2021/09/19 04:49:28;;;;;;;5.03;2.53;;;12.70;99.90;;;;;;5036495;28;20305;-59
2021/09/19 04:51:54;;;;;;;2.60;2.08;;;12.70;99.90;;;;;;5038558;28;20397;-61
2021/09/19 04:54:19;;;;;;;4.13;2.10;;;12.80;99.90;;;;;;5047914;28;20054;-56
2021/09/19 04:56:45;;;;;;;3.53;2.53;;;12.80;99.90;;;;;;5037102;28;20029;-59
2021/09/19 04:59:10;;;;;;;4.82;2.65;;;12.80;99.90;;;;;;5039278;28;20446;-60
2021/09/19 05:01:36;;;;;;;5.60;2.47;;;12.80;99.90;;;;;;5046132;28;20182;-58
2021/09/19 05:04:01;;;;;;;5.80;2.78;;;12.70;99.90;;;;;;5027928;28;20547;-58
2021/09/19 05:06:27;;;;;;;3.75;2.40;;;12.70;99.90;;;;;;5044850;28;20419;-59
2021/09/19 05:08:53;;;;;;;3.92;2.63;;;12.60;99.90;;;;;;5036526;28;20025;-61
2021/09/19 05:11:18;;;;;;;3.13;2.78;;;12.60;99.90;;;;;;5042985;28;20041;-58
2021/09/19 05:13:44;;;;;;;5.90;3.22;;;12.60;99.90;;;;;;5034910;28;20034;-60
2021/09/19 05:16:09;;;;;;;2.55;2.35;;;12.50;99.90;;;;;;5038842;28;20032;-58
2021/09/19 05:18:35;;;;;;;5.30;2.47;;;12.50;99.90;;;;;;5036659;28;20218;-59
2021/09/19 05:21:02;;;;;;;3.38;2.50;;;12.60;99.90;;;;;;5049872;28;20031;-57
2021/09/19 05:23:28;;;;;;;4.22;2.80;;;12.60;99.90;;;;;;5045072;28;20021;-60
2021/09/19 05:25:54;;;;;;;6.05;2.90;;;12.60;99.90;;;;;;5041452;28;20417;-61
2021/09/19 05:28:19;;;;;;;7.25;3.72;;;12.50;99.90;;;;;;5036231;28;20025;-58
2021/09/19 05:30:45;;;;;;;3.58;2.95;;;12.50;99.90;;;;;;5045955;28;20029;-55
2021/09/19 05:33:10;;;;;;;4.72;3.03;;;12.60;99.90;;;;;;5035629;28;20503;-60
2021/09/19 05:35:36;;;;;;;3.20;2.72;;;12.60;99.90;;;;;;5037852;28;20084;-60
2021/09/19 05:38:06;;;;;;;3.70;2.65;;;12.60;99.90;;;;;;5039621;28;20099;-57
2021/09/19 05:40:32;;;;;;;3.13;2.53;;;12.60;99.90;;;;;;5041163;28;20075;-55
2021/09/19 05:42:58;;;;;;;4.03;2.97;;;12.60;99.90;;;;;;5023487;28;20116;-58
2021/09/19 05:45:23;;;;;;;3.03;2.60;;;12.70;99.90;;;;;;5033734;28;20104;-61
2021/09/19 05:47:49;;;;;;;4.03;2.63;;;12.70;99.90;;;;;;5047628;28;20073;-58
2021/09/19 05:50:14;;;;;;;5.72;3.38;;;12.70;99.90;;;;;;5039802;28;20028;-56
2021/09/19 05:52:40;;;;;;;6.20;3.83;;;12.70;99.90;;;;;;5043040;28;20120;-56
2021/09/19 05:55:06;;;;;;;5.30;3.55;;;12.70;99.90;;;;;;5043166;28;20079;-55
2021/09/19 05:57:32;;;;;;;8.43;3.30;;;12.70;99.90;;;;;;5043998;28;20026;-60
2021/09/19 05:59:59;;;;;;;3.78;2.90;;;12.60;99.90;;;;;;5034762;28;20025;-59
2021/09/19 06:02:24;;;;;;;5.47;3.03;;;12.70;99.90;;;;;;5032284;28;20041;-54
2021/09/19 06:04:50;;;;;;;5.22;3.17;;;12.70;99.90;;;;;;5034431;28;20033;-56
2021/09/19 06:07:15;;;;;;;5.10;4.32;;;12.70;99.90;;;;;;5047317;28;20318;-61
2021/09/19 06:09:41;;;;;;;4.93;3.78;;;12.60;99.90;;;;;;5044207;28;20371;-57
2021/09/19 06:12:07;;;;;;;6.22;4.15;;;12.70;99.90;;;;;;5035663;28;20026;-54
2021/09/19 06:14:32;;;;;;;6.50;4.40;;;12.70;99.90;;;;;;5041844;28;20025;-56
2021/09/19 06:16:58;;;;;;;4.93;3.97;;;12.80;99.90;;;;;;5035513;28;20113;-54
2021/09/19 06:19:23;;;;;;;6.47;3.88;;;12.80;99.90;;;;;;5045377;28;20025;-56
2021/09/19 06:21:49;;;;;;;7.38;3.53;;;12.90;99.90;;;;;;5043336;28;20191;-57
2021/09/19 06:24:15;;;;;;;8.13;4.10;;;12.90;99.90;;;;;;5043581;28;20026;-58
2021/09/19 06:26:40;;;;;;;8.18;5.18;;;12.90;99.90;;;;;;5033734;28;20416;-60
2021/09/19 06:29:06;;;;;;;7.82;4.38;;;13.00;99.90;;;;;;5043777;28;20021;-55
2021/09/19 06:31:32;;;;;;;5.60;4.38;;;13.00;99.90;;;;;;5051435;28;20032;-58
2021/09/19 06:33:58;;;;;;;5.15;4.45;;;13.10;99.90;;;;;;5050901;28;20032;-58
2021/09/19 06:36:24;;;;;;;4.90;4.05;;;13.10;99.90;;;;;;5039855;28;20034;-54
2021/09/19 06:38:49;;;;;;;7.50;3.95;;;13.20;99.90;;;;;;5043449;28;20025;-57
2021/09/19 06:41:15;;;;;;;6.25;4.32;;;13.20;99.90;;;;;;5042277;28;20028;-53
2021/09/19 06:43:40;;;;;;;7.25;4.50;;;13.30;99.90;;;;;;5051444;28;20033;-57
2021/09/19 06:46:06;;;;;;;6.32;4.03;;;13.30;99.90;;;;;;5045537;28;20092;-60
2021/09/19 06:48:32;;;;;;;6.18;4.18;;;13.40;99.90;;;;;;5045126;28;20037;-61
2021/09/19 06:50:57;;;;;;;10.90;4.88;;;13.40;99.90;;;;;;5043404;28;20029;-58
2021/09/19 06:53:23;;;;;;;7.50;5.50;;;13.50;99.90;;;;;;5044076;28;20036;-57
2021/09/19 06:55:48;;;;;;;9.80;5.88;;;13.60;99.90;;;;;;5043411;28;20082;-61
2021/09/19 06:58:14;;;;;;;7.88;5.88;;;13.60;99.90;;;;;;5043623;28;20039;-59
2021/09/19 07:00:40;;;;;;;4.82;4.32;;;13.70;99.90;;;;;;5041923;28;21793;-57
2021/09/19 07:03:05;;;;;;;6.45;4.63;;;13.70;99.90;;;;;;5044006;28;20029;-57
2021/09/19 07:05:31;;;;;;;7.07;4.53;;;13.80;99.90;;;;;;5044169;28;20035;-55
2021/09/19 07:07:56;;;;;;;5.70;4.13;;;13.90;99.90;;;;;;5042291;28;20029;-58
2021/09/19 07:10:22;;;;;;;5.13;3.70;;;13.90;99.90;;;;;;5048289;28;20027;-61
2021/09/19 07:12:48;;;;;;;5.97;4.00;;;14.00;99.90;;;;;;5044889;28;20032;-58
2021/09/19 07:15:14;;;;;;;6.57;4.65;;;14.00;99.90;;;;;;5041367;28;20116;-60
2021/09/19 07:17:39;;;;;;;4.80;4.07;;;14.10;99.90;;;;;;5042216;28;20536;-59
2021/09/19 07:20:06;;;;;;;6.13;4.35;;;14.10;99.90;;;;;;5050090;28;20040;-57
2021/09/19 07:22:31;;;;;;;5.40;3.92;;;14.20;99.90;;;;;;5052181;28;20060;-61
2021/09/19 07:24:57;;;;;;;6.57;3.60;;;14.20;99.90;;;;;;5045755;28;20033;-58
2021/09/19 07:27:22;;;;;;;5.22;3.95;;;14.30;99.90;;;;;;5041488;28;20033;-59
2021/09/19 07:29:48;;;;;;;5.22;4.05;;;14.40;99.90;;;;;;5027501;28;20516;-60
2021/09/19 07:32:14;;;;;;;4.85;4.25;;;14.40;99.90;;;;;;5042829;28;20096;-60
2021/09/19 07:34:41;;;;;;;5.75;3.83;;;14.50;99.90;;;;;;5047387;28;20025;-61
2021/09/19 07:37:08;;;;;;;4.82;3.72;;;14.60;99.90;;;;;;5041732;28;20040;-61
2021/09/19 07:39:35;;;;;;;5.68;3.75;;;14.60;99.90;;;;;;5044820;28;20508;-59
2021/09/19 07:42:01;;;;;;;5.30;3.70;;;14.70;99.90;;;;;;5045242;28;20044;-61
2021/09/19 07:44:27;;;;;;;5.25;3.53;;;14.70;99.90;;;;;;5042823;28;20029;-61
2021/09/19 07:46:53;;;;;;;5.07;3.30;;;14.80;99.90;;;;;;5041151;28;20033;-57
2021/09/19 07:49:20;;;;;;;5.75;3.35;;;14.90;99.90;;;;;;5046511;28;20021;-60
2021/09/19 07:51:45;;;;;;;4.57;3.55;;;14.90;99.90;;;;;;5087962;22;20179;-59
2021/09/19 07:54:11;;;;;;;6.45;4.18;;;15.00;99.90;;;;;;5086982;28;20032;-62
2021/09/19 07:56:37;;;;;;;6.75;3.58;;;15.10;99.90;;;;;;5090448;28;20483;-59
2021/09/19 07:59:03;;;;;;;7.93;3.42;;;15.20;99.90;;;;;;5089949;28;20052;-62
2021/09/19 08:01:28;;;;;;;4.95;3.55;;;15.30;99.90;;;;;;5090284;28;20027;-63
2021/09/19 08:03:54;;;;;;;3.50;3.03;;;15.30;99.90;;;;;;5091596;28;20027;-59
2021/09/19 08:06:22;;;;;;;4.90;3.30;;;15.40;99.90;;;;;;5091117;28;20020;-59
2021/09/19 08:08:49;;;;;;;3.67;3.35;;;15.40;99.90;;;;;;5094244;28;20035;-58
2021/09/19 08:11:14;;;;;;;3.75;3.33;;;15.50;99.90;;;;;;5100165;28;20024;-57
2021/09/19 08:13:40;;;;;;;3.30;3.00;;;15.50;99.90;;;;;;5088740;28;20372;-59
2021/09/19 08:16:06;;;;;;;5.55;3.75;;;15.60;99.90;;;;;;5089737;28;20179;-58
2021/09/19 08:18:31;;;;;;;4.50;3.95;;;15.70;99.90;;;;;;5091064;28;20024;-58
2021/09/19 08:20:57;;;;;;;4.70;3.60;;;15.80;99.90;;;;;;5091628;28;20028;-58
2021/09/19 08:23:23;;;;;;;5.13;3.08;;;15.90;99.90;;;;;;5092256;28;20038;-60
2021/09/19 08:25:48;;;;;;;7.53;3.22;;;16.00;99.90;;;;;;5090815;28;20592;-57
2021/09/19 08:28:14;;;;;;;4.45;2.97;;;16.10;99.90;;;;;;5094117;28;20475;-58
2021/09/19 08:30:39;;;;;;;3.35;3.05;;;16.20;99.90;;;;;;5102598;28;20035;-61
2021/09/19 08:33:05;;;;;;;3.80;3.30;;;16.30;99.90;;;;;;5090810;28;20032;-61
2021/09/19 08:35:31;;;;;;;4.82;3.30;;;16.30;99.90;;;;;;5090285;28;20020;-58
2021/09/19 08:37:57;;;;;;;3.40;2.83;;;16.40;99.90;;;;;;5090578;28;20409;-62
2021/09/19 08:40:23;;;;;;;6.15;3.72;;;16.50;99.90;;;;;;5096377;28;20035;-58
2021/09/19 08:42:54;;;;;;;5.68;3.40;;;16.60;99.90;;;;;;5097444;28;20047;-60
2021/09/19 08:45:19;;;;;;;5.20;2.97;;;16.60;99.90;;;;;;5094553;28;20507;-61
2021/09/19 08:47:45;;;;;;;3.20;2.90;;;16.70;99.90;;;;;;5100709;28;20032;-59
2021/09/19 08:50:11;;;;;;;3.20;2.90;;;16.90;99.90;;;;;;5090910;28;20475;-61
2021/09/19 08:52:37;;;;;;;9.65;2.67;;;16.90;99.90;;;;;;5100591;28;20035;-60
2021/09/19 08:55:05;;;;;;;3.95;2.95;;;17.10;99.90;;;;;;5090764;28;20028;-62
2021/09/19 08:57:31;;;;;;;3.65;2.50;;;17.20;99.90;;;;;;5096751;28;20134;-59
2021/09/19 09:00:05;;;;;;;3.30;2.33;;;17.20;99.90;;;;;;5089293;28;20036;-59
2021/09/19 09:02:50;;;;;;;3.87;2.80;;;17.30;99.90;;;;;;5097253;28;20029;-60
2021/09/19 09:05:23;;;;;;;3.17;2.55;;;17.50;99.90;;;;;;5098799;28;20082;-60
2021/09/19 09:07:54;;;;;;;3.35;2.63;;;17.60;99.90;;;;;;5098826;28;20020;-58
2021/09/19 09:10:39;;;;;;;2.83;2.50;;;17.70;99.90;;;;;;5085650;28;20020;-61
2021/09/19 09:13:26;;;;;;;3.13;2.83;;;17.80;99.90;;;;;;5093214;28;20024;-60
2021/09/19 09:16:11;;;;;;;5.57;3.58;;;17.90;99.90;;;;;;5105221;28;20459;-60
2021/09/19 09:18:53;;;;;;;3.08;2.38;;;17.90;99.90;;;;;;5088159;28;20053;-60
2021/09/19 09:21:30;;;;;;;3.30;2.55;;;18.00;99.90;;;;;;5094633;28;20062;-60
2021/09/19 09:24:01;;;;;;;3.28;2.50;;;18.10;99.90;;;;;;5092573;28;20490;-59
2021/09/19 09:26:32;;;;;;;4.88;2.47;;;18.20;99.90;;;;;;5092683;28;20414;-60
2021/09/19 09:29:05;;;;;;;6.82;3.35;;;18.30;99.90;;;;;;5095322;28;20024;-56
2021/09/19 09:31:50;;;;;;;3.30;2.22;;;18.40;99.90;;;;;;5080343;28;20024;-60
2021/09/19 09:34:24;;;;;;;2.35;2.15;;;18.60;99.90;;;;;;5092847;28;20455;-59
2021/09/19 09:36:55;;;;;;;3.13;2.60;;;18.70;99.90;;;;;;5096251;28;20146;-59
2021/09/19 09:39:36;;;;;;;3.88;2.67;;;18.80;99.90;;;;;;5095804;28;20040;-59
2021/09/19 09:42:14;;;;;;;2.75;2.30;;;18.90;99.90;;;;;;5090620;28;20027;-59
2021/09/19 09:44:41;;;;;;;3.65;3.10;;;18.90;99.90;;;;;;5086469;28;20032;-56
2021/09/19 09:47:18;;;;;;;3.17;2.30;;;18.90;99.90;;;;;;5091642;28;20031;-59
2021/09/19 09:49:48;;;;;;;3.75;3.00;;;18.90;99.90;;;;;;5091169;28;20024;-57
2021/09/19 09:52:19;;;;;;;3.08;2.67;;;18.90;99.90;;;;;;5091022;28;20031;-58
2021/09/19 09:54:52;;;;;;;2.72;2.40;;;18.90;99.90;;;;;;5111265;28;20089;-59
2021/09/19 09:57:50;;;;;;;3.83;2.60;;;19.00;99.90;;;;;;5102316;28;20027;-57
2021/09/19 10:00:20;;;;;;;3.50;2.55;;;18.90;99.90;;;;;;5089775;28;20094;-56
2021/09/19 10:02:48;;;;;;;2.85;2.20;;;19.00;99.90;;;;;;5094669;28;21402;-58
2021/09/19 10:05:15;;;;;;;5.57;2.78;;;19.20;99.90;;;;;;5072119;28;20081;-59
2021/09/19 10:07:42;;;;;;;2.88;2.40;;;19.40;99.90;;;;;;5096122;28;20069;-57
2021/09/19 10:10:10;;;;;;;2.85;2.45;;;19.40;99.90;;;;;;5094867;28;20054;-57
2021/09/19 10:12:36;;;;;;;5.30;2.58;;;19.20;99.90;;;;;;5088587;28;20036;-58
2021/09/19 10:15:07;;;;;;;3.95;2.88;;;19.20;99.90;;;;;;5089355;28;20788;-59
2021/09/19 10:17:34;;;;;;;3.60;2.70;;;19.40;99.90;;;;;;5091635;28;20032;-55
2021/09/19 10:20:03;;;;;;;3.08;2.58;;;19.70;99.90;;;;;;5092621;28;20519;-59
2021/09/19 10:22:35;;;;;;;3.88;2.33;;;19.80;99.90;;;;;;5087865;28;20036;-58
2021/09/19 10:25:01;;;;;;;2.80;2.38;;;19.50;99.90;;;;;;5093859;28;20035;-57
2021/09/19 10:27:33;;;;;;;2.38;2.15;;;19.30;99.90;;;;;;5096898;28;20232;-56
2021/09/19 10:30:06;;;;;;;2.30;2.10;;;19.50;99.90;;;;;;5090879;28;20092;-58
2021/09/19 10:32:42;;;;;;;2.90;2.05;;;19.40;99.90;;;;;;5100758;28;20102;-58
2021/09/19 10:35:22;;;;;;;2.90;2.40;;;19.30;99.90;;;;;;5094064;28;20056;-58
2021/09/19 10:38:00;;;;;;;4.10;2.42;;;19.20;99.90;;;;;;5090812;28;20028;-59
2021/09/19 10:40:39;;;;;;;3.03;2.35;;;19.10;99.90;;;;;;5089565;28;20089;-57
2021/09/19 10:43:09;;;;;;;4.25;2.58;;;19.30;99.90;;;;;;5097582;28;20032;-57
2021/09/19 10:45:35;;;;;;;2.53;2.33;;;19.40;99.90;;;;;;5093108;28;20957;-55
2021/09/19 10:48:13;;;;;;;2.63;1.98;;;19.50;99.90;;;;;;5092513;28;20032;-57
2021/09/19 10:50:39;;;;;;;4.00;1.70;;;19.70;99.90;;;;;;5095318;28;20032;-56
2021/09/19 10:53:23;;;;;;;2.90;2.15;;;19.90;99.90;;;;;;5089371;28;20571;-58
2021/09/19 10:55:54;;;;;;;3.83;2.10;;;20.00;99.90;;;;;;5093924;28;20023;-59
2021/09/19 10:58:31;;;;;;;3.53;2.20;;;20.10;99.90;;;;;;5094092;28;20027;-55
2021/09/19 11:01:07;;;;;;;3.65;2.38;;;20.20;99.90;;;;;;5089668;28;20036;-55
2021/09/19 11:03:32;;;;;;;2.75;2.38;;;20.20;99.90;;;;;;5088863;28;20482;-55
2021/09/19 11:05:58;;;;;;;3.50;2.20;;;20.00;99.90;;;;;;5100050;28;20556;-57
2021/09/19 11:08:24;;;;;;;2.88;2.42;;;19.80;99.90;;;;;;5103045;28;20036;-58
2021/09/19 11:10:50;;;;;;;2.45;1.85;;;19.80;99.90;;;;;;5095748;28;20032;-59
2021/09/19 11:13:34;;;;;;;2.60;2.40;;;19.90;99.90;;;;;;5090571;28;20032;-58
2021/09/19 11:16:02;;;;;;;1.90;1.80;;;20.30;99.90;;;;;;5072214;28;20395;-59
2021/09/19 11:18:30;;;;;;;3.17;2.10;;;20.40;99.90;;;;;;5089913;28;20031;-59
2021/09/19 11:21:11;;;;;;;3.45;2.40;;;20.30;99.90;;;;;;5087705;28;20032;-59
2021/09/19 11:23:44;;;;;;;3.38;2.17;;;20.30;99.90;;;;;;5088270;28;20152;-59
2021/09/19 11:26:11;;;;;;;3.28;2.67;;;20.20;99.90;;;;;;5085814;28;20111;-60
2021/09/19 11:28:37;;;;;;;3.03;2.55;;;20.10;99.90;;;;;;5090820;28;20083;-59
2021/09/19 11:31:04;;;;;;;2.70;2.25;;;20.10;99.90;;;;;;5090534;28;20372;-59
2021/09/19 11:33:33;;;;;;;2.30;2.10;;;20.10;99.90;;;;;;5088610;28;20069;-58
2021/09/19 11:36:03;;;;;;;6.45;2.38;;;20.00;99.90;;;;;;5089768;28;20031;-58
2021/09/19 11:38:34;;;;;;;2.45;2.25;;;20.00;99.90;;;;;;5092320;28;20020;-58
2021/09/19 11:41:01;;;;;;;3.72;2.47;;;20.00;99.90;;;;;;5093475;28;20023;-59
2021/09/19 11:43:27;;;;;;;3.00;2.20;;;20.10;99.90;;;;;;5094770;28;20146;-55
2021/09/19 11:45:53;;;;;;;4.00;2.22;;;20.00;99.90;;;;;;5091631;28;20024;-55
2021/09/19 11:48:19;;;;;;;2.45;2.25;;;20.00;99.90;;;;;;5090809;28;20054;-54
2021/09/19 11:50:48;;;;;;;4.53;2.72;;;19.90;99.90;;;;;;5096736;28;20119;-55
2021/09/19 11:53:14;;;;;;;3.08;2.78;;;19.90;99.90;;;;;;5091056;28;20072;-59
2021/09/19 11:55:45;;;;;;;4.60;2.63;;;20.00;99.90;;;;;;5092800;28;20096;-58
2021/09/19 11:58:15;;;;;;;4.90;2.30;;;20.20;99.90;;;;;;5084380;28;20162;-59
2021/09/19 12:00:41;;;;;;;3.08;2.42;;;20.30;99.90;;;;;;5091119;28;20383;-59
2021/09/19 12:03:07;;;;;;;4.05;3.00;;;20.30;99.90;;;;;;5092072;28;20036;-58
2021/09/19 12:05:34;;;;;;;2.63;2.42;;;20.30;99.90;;;;;;5089909;28;20032;-59
2021/09/19 12:07:59;;;;;;;3.30;2.50;;;20.30;99.90;;;;;;5095567;28;20032;-59
2021/09/19 12:10:25;;;;;;;4.13;2.47;;;20.40;99.90;;;;;;5104818;28;20372;-58
2021/09/19 12:12:51;;;;;;;2.35;2.15;;;20.50;99.90;;;;;;5099426;28;20419;-59
2021/09/19 12:15:25;;;;;;;2.22;1.88;;;20.90;99.90;;;;;;5096129;28;20047;-55
2021/09/19 12:18:05;;;;;;;5.25;2.00;;;21.40;99.90;;;;;;5082161;28;20858;-58
2021/09/19 12:20:32;;;;;;;5.30;2.25;;;21.80;99.90;;;;;;5101814;28;20048;-58
2021/09/19 12:23:17;;;;;;;2.40;2.20;;;22.20;99.90;;;;;;5090674;28;20052;-60
2021/09/19 12:25:50;;;;;;;3.30;2.50;;;22.10;99.90;;;;;;5085227;28;20020;-58
2021/09/19 12:28:34;;;;;;;4.97;2.58;;;22.40;99.90;;;;;;5091520;28;20515;-58
2021/09/19 12:31:00;;;;;;;2.92;2.53;;;22.30;99.90;;;;;;5088269;28;20490;-60
2021/09/19 12:33:26;;;;;;;2.70;2.50;;;22.20;99.90;;;;;;5091111;28;20050;-57
2021/09/19 12:35:52;;;;;;;2.88;2.35;;;21.80;99.90;;;;;;5089225;28;20479;-57
2021/09/19 12:38:18;;;;;;;2.53;2.30;;;21.10;99.90;;;;;;5092964;28;20024;-57
2021/09/19 12:40:45;;;;;;;2.45;2.22;;;21.10;99.90;;;;;;5092253;28;20028;-58
2021/09/19 12:43:14;;;;;;;2.40;2.10;;;21.00;99.90;;;;;;5092509;28;20028;-59
2021/09/19 12:45:52;;;;;;;6.13;2.42;;;20.80;99.90;;;;;;5092916;28;20509;-58
2021/09/19 12:48:25;;;;;;;2.47;2.08;;;20.60;99.90;;;;;;5107018;28;20043;-58